createdAt,value
2023-05-10T00:01:07.348Z,4.90
2023-05-10T00:03:36.276Z,5.13
2023-05-10T00:06:05.218Z,4.90
2023-05-10T00:08:33.303Z,5.07
2023-05-10T00:11:05.737Z,4.63
2023-05-10T00:13:33.883Z,4.93
2023-05-10T00:16:02.160Z,4.93
2023-05-10T00:18:31.292Z,5.10
2023-05-10T00:20:59.385Z,5.63
2023-05-10T00:23:30.356Z,5.00
2023-05-10T00:25:59.246Z,4.90
2023-05-10T00:28:29.681Z,5.17
2023-05-10T00:30:58.424Z,4.60
2023-05-10T00:33:27.326Z,5.07
2023-05-10T00:35:58.260Z,5.10
2023-05-10T00:38:29.083Z,4.67
2023-05-10T00:40:58.341Z,4.97
2023-05-10T00:43:33.272Z,5.00
2023-05-10T00:46:01.939Z,5.17
2023-05-10T00:48:31.524Z,4.80
2023-05-10T00:51:00.179Z,4.57
2023-05-10T00:53:29.147Z,4.57
2023-05-10T00:55:57.927Z,4.90
2023-05-10T00:58:29.320Z,4.80
2023-05-10T01:00:59.736Z,4.83
2023-05-10T01:03:29.309Z,4.90
2023-05-10T01:05:57.785Z,4.63
2023-05-10T01:08:27.266Z,4.90
2023-05-10T01:10:55.887Z,4.43
2023-05-10T01:13:34.308Z,4.37
2023-05-10T01:16:04.387Z,4.53
2023-05-10T01:18:37.333Z,4.37
2023-05-10T01:21:21.100Z,4.70
2023-05-10T01:24:26.292Z,4.67
2023-05-10T01:27:28.310Z,4.40
2023-05-10T01:30:16.027Z,4.17
2023-05-10T01:32:58.340Z,4.30
2023-05-10T01:35:37.369Z,4.03
2023-05-10T01:38:14.088Z,4.00
2023-05-10T01:40:49.302Z,4.00
2023-05-10T01:43:23.496Z,3.93
2023-05-10T01:46:12.416Z,3.50
2023-05-10T01:48:49.209Z,3.77
2023-05-10T01:51:23.850Z,3.90
2023-05-10T01:53:58.603Z,3.87
2023-05-10T01:56:30.260Z,4.23
2023-05-10T01:58:59.302Z,3.77
2023-05-10T02:01:31.301Z,4.03
2023-05-10T02:04:04.132Z,3.80
2023-05-10T02:06:34.300Z,3.97
2023-05-10T02:09:03.484Z,3.80
2023-05-10T02:11:33.139Z,4.17
2023-05-10T02:14:04.295Z,3.83
2023-05-10T02:16:34.762Z,3.67
2023-05-10T02:19:07.366Z,4.03
2023-05-10T02:21:37.181Z,3.67
2023-05-10T02:24:10.310Z,3.50
2023-05-10T02:26:40.219Z,3.83
2023-05-10T02:29:10.292Z,4.60
2023-05-10T02:31:39.840Z,4.00
2023-05-10T02:34:13.490Z,3.97
2023-05-10T02:36:43.159Z,3.70
2023-05-10T02:39:17.259Z,4.17
2023-05-10T02:41:48.053Z,4.33
2023-05-10T02:44:25.251Z,4.13
2023-05-10T02:46:53.504Z,4.13
2023-05-10T02:49:25.407Z,4.27
2023-05-10T02:51:58.931Z,4.03
2023-05-10T02:54:32.048Z,3.90
2023-05-10T02:57:01.530Z,4.27
2023-05-10T02:59:29.664Z,4.27
2023-05-10T03:02:01.258Z,4.47
2023-05-10T03:04:30.936Z,4.40
2023-05-10T03:07:00.269Z,4.10
2023-05-10T03:09:29.374Z,4.10
2023-05-10T03:12:06.140Z,4.00
2023-05-10T03:14:46.897Z,4.27
2023-05-10T03:17:26.342Z,4.23
2023-05-10T03:19:58.294Z,4.23
2023-05-10T03:22:33.356Z,4.23
2023-05-10T03:25:06.662Z,4.03
2023-05-10T03:27:42.306Z,4.40
2023-05-10T03:30:16.571Z,4.00
2023-05-10T03:32:45.161Z,4.13
2023-05-10T03:35:15.361Z,4.40
2023-05-10T03:37:45.348Z,3.70
2023-05-10T03:40:14.402Z,5.20
2023-05-10T03:42:44.528Z,4.83
2023-05-10T03:45:17.004Z,4.10
2023-05-10T03:47:45.367Z,4.17
2023-05-10T03:50:15.322Z,4.03
2023-05-10T03:52:45.319Z,4.17
2023-05-10T03:55:13.594Z,4.60
2023-05-10T03:57:45.342Z,4.40
2023-05-10T04:00:14.752Z,4.10
2023-05-10T04:02:54.521Z,4.40
2023-05-10T04:05:24.230Z,4.10
2023-05-10T04:07:55.562Z,4.47
2023-05-10T04:10:23.652Z,3.60
2023-05-10T04:12:52.259Z,4.33
2023-05-10T04:15:21.355Z,4.07
2023-05-10T04:17:49.820Z,4.30
2023-05-10T04:20:18.704Z,3.93
2023-05-10T04:22:48.384Z,4.20
2023-05-10T04:25:18.160Z,3.77
2023-05-10T04:27:49.496Z,4.30
2023-05-10T04:30:18.040Z,3.70
2023-05-10T04:32:46.401Z,4.10
2023-05-10T04:35:16.383Z,3.77
2023-05-10T04:37:48.244Z,4.40
2023-05-10T04:40:19.285Z,4.50
2023-05-10T04:42:47.551Z,4.40
2023-05-10T04:45:16.612Z,4.43
2023-05-10T04:47:44.828Z,4.80
2023-05-10T04:50:15.145Z,3.90
2023-05-10T04:52:46.530Z,4.27
2023-05-10T04:55:16.030Z,3.70
2023-05-10T04:57:44.214Z,4.13
2023-05-10T05:00:13.629Z,4.13
2023-05-10T05:02:45.369Z,3.87
2023-05-10T05:05:15.137Z,4.20
2023-05-10T05:07:43.297Z,3.80
2023-05-10T05:10:11.882Z,3.57
2023-05-10T05:12:41.458Z,3.80
2023-05-10T05:15:11.768Z,3.30
2023-05-10T05:17:40.078Z,4.33
2023-05-10T05:20:12.196Z,3.80
2023-05-10T05:22:44.302Z,3.83
2023-05-10T05:25:12.816Z,4.03
2023-05-10T05:27:42.491Z,3.87
2023-05-10T05:30:11.654Z,3.63
2023-05-10T05:32:40.378Z,3.60
2023-05-10T05:35:12.430Z,3.60
2023-05-10T05:37:42.399Z,3.57
2023-05-10T05:40:14.312Z,4.67
2023-05-10T05:42:44.030Z,3.67
2023-05-10T05:45:14.286Z,3.90
2023-05-10T05:47:42.762Z,15.83
2023-05-10T05:50:12.070Z,6.67
2023-05-10T05:52:40.638Z,3.83
2023-05-10T05:55:09.319Z,3.50
2023-05-10T05:57:41.391Z,3.33
2023-05-10T06:00:11.972Z,3.90
2023-05-10T06:02:43.286Z,3.57
2023-05-10T06:05:11.638Z,3.23
2023-05-10T06:07:40.836Z,6.07
2023-05-10T06:10:09.753Z,4.50
2023-05-10T06:12:38.238Z,4.00
2023-05-10T06:15:06.952Z,3.47
2023-05-10T06:17:36.490Z,3.40
2023-05-10T06:20:04.954Z,2.80
2023-05-10T06:22:33.064Z,3.03
2023-05-10T06:25:01.162Z,3.27
2023-05-10T06:27:29.517Z,3.30
2023-05-10T06:30:11.729Z,2.87
2023-05-10T06:32:42.260Z,3.10
2023-05-10T06:35:11.191Z,3.13
2023-05-10T06:37:39.300Z,2.93
2023-05-10T06:40:08.846Z,3.10
2023-05-10T06:42:40.106Z,3.53
2023-05-10T06:45:10.928Z,3.33
2023-05-10T06:47:39.510Z,2.90
2023-05-10T06:50:10.054Z,3.20
2023-05-10T06:52:40.933Z,3.80
2023-05-10T06:55:10.610Z,2.80
2023-05-10T06:57:38.671Z,5.90
2023-05-10T07:00:08.242Z,4.47
2023-05-10T07:02:37.430Z,2.60
2023-05-10T07:05:09.501Z,2.73
2023-05-10T07:07:38.962Z,2.87
2023-05-10T07:10:09.515Z,3.83
2023-05-10T07:12:37.663Z,3.90
2023-05-10T07:15:06.674Z,2.70
2023-05-10T07:17:35.525Z,3.73
2023-05-10T07:20:05.471Z,2.90
2023-05-10T07:22:33.709Z,3.83
2023-05-10T07:25:03.400Z,2.80
2023-05-10T07:27:31.501Z,3.40
2023-05-10T07:29:59.815Z,3.23
2023-05-10T07:32:28.018Z,2.30
2023-05-10T07:34:56.549Z,11.40
2023-05-10T07:37:24.702Z,4.70
2023-05-10T07:39:52.774Z,2.33
2023-05-10T07:42:22.669Z,1.90
2023-05-10T07:44:50.705Z,2.70
2023-05-10T07:47:22.072Z,2.30
2023-05-10T07:49:54.139Z,3.00
2023-05-10T07:52:22.803Z,2.43
2023-05-10T07:54:51.299Z,2.63
2023-05-10T07:57:20.450Z,3.00
2023-05-10T07:59:50.997Z,2.50
2023-05-10T08:02:21.350Z,2.87
2023-05-10T08:04:49.438Z,2.47
2023-05-10T08:07:17.515Z,2.40
2023-05-10T08:09:45.742Z,3.33
2023-05-10T08:12:13.879Z,3.03
2023-05-10T08:14:43.182Z,3.07
2023-05-10T08:17:12.703Z,3.47
2023-05-10T08:19:40.904Z,2.47
2023-05-10T08:22:13.144Z,2.93
2023-05-10T08:24:42.977Z,2.80
2023-05-10T08:27:11.280Z,2.10
2023-05-10T08:29:49.462Z,2.87
2023-05-10T08:32:20.581Z,3.47
2023-05-10T08:34:52.094Z,2.13
2023-05-10T08:37:20.199Z,2.60
2023-05-10T08:39:49.018Z,3.08
2023-05-10T08:42:22.700Z,2.90
2023-05-10T08:44:53.494Z,2.93
2023-05-10T08:47:23.388Z,2.60
2023-05-10T08:49:56.454Z,2.63
2023-05-10T08:52:30.269Z,4.27
2023-05-10T08:54:58.881Z,4.17
2023-05-10T08:57:27.489Z,2.50
2023-05-10T08:59:55.903Z,2.13
2023-05-10T09:02:26.263Z,2.57
2023-05-10T09:04:54.599Z,2.57
2023-05-10T09:07:23.079Z,2.00
2023-05-10T09:09:51.728Z,1.97
2023-05-10T09:12:19.831Z,2.00
2023-05-10T09:14:52.600Z,2.23
2023-05-10T09:17:21.021Z,2.60
2023-05-10T09:19:50.729Z,1.97
2023-05-10T09:22:19.507Z,3.50
2023-05-10T09:24:49.392Z,2.20
2023-05-10T09:27:17.646Z,2.63
2023-05-10T09:29:46.131Z,1.90
2023-05-10T09:32:14.263Z,2.73
2023-05-10T09:34:43.516Z,2.10
2023-05-10T09:37:15.558Z,1.87
2023-05-10T09:39:46.911Z,2.40
2023-05-10T09:42:20.273Z,2.20
2023-05-10T09:44:48.982Z,2.20
2023-05-10T09:47:19.792Z,4.27
2023-05-10T09:49:52.166Z,2.13
2023-05-10T09:52:21.599Z,2.10
2023-05-10T09:54:55.968Z,1.80
2023-05-10T09:57:25.527Z,2.20
2023-05-10T09:59:55.305Z,3.20
2023-05-10T10:02:30.286Z,2.80
2023-05-10T10:04:59.543Z,2.30
2023-05-10T10:07:29.709Z,2.23
2023-05-10T10:09:58.035Z,2.80
2023-05-10T10:12:27.029Z,2.70
2023-05-10T10:14:57.034Z,3.00
2023-05-10T10:17:29.198Z,2.50
2023-05-10T10:19:59.739Z,1.83
2023-05-10T10:22:29.231Z,2.03
2023-05-10T10:25:00.524Z,2.20
2023-05-10T10:27:37.657Z,2.33
2023-05-10T10:30:15.580Z,1.80
2023-05-10T10:33:16.525Z,1.57
2023-05-10T10:35:49.494Z,2.03
2023-05-10T10:38:19.125Z,2.27
2023-05-10T10:40:47.263Z,2.23
2023-05-10T10:43:26.542Z,2.13
2023-05-10T10:46:16.631Z,2.93
2023-05-10T10:48:50.037Z,2.77
2023-05-10T10:51:19.549Z,1.90
2023-05-10T10:53:52.738Z,2.50
2023-05-10T10:56:25.550Z,3.70
2023-05-10T10:58:54.666Z,1.97
2023-05-10T11:01:23.598Z,2.17
2023-05-10T11:04:21.095Z,1.90
2023-05-10T11:06:50.542Z,2.10
2023-05-10T11:09:23.128Z,2.40
2023-05-10T11:11:55.908Z,2.70
2023-05-10T11:14:25.538Z,2.70
2023-05-10T11:16:54.645Z,2.10
2023-05-10T11:19:22.790Z,3.70
2023-05-10T11:21:52.594Z,2.77
2023-05-10T11:24:25.582Z,2.73
2023-05-10T11:26:53.743Z,2.33
2023-05-10T11:29:22.126Z,2.70
2023-05-10T11:31:51.565Z,2.70
2023-05-10T11:34:27.592Z,2.50
2023-05-10T11:36:57.248Z,2.23
2023-05-10T11:39:30.081Z,1.83
2023-05-10T11:41:59.406Z,2.90
2023-05-10T11:44:35.358Z,2.07
2023-05-10T11:47:04.609Z,2.37
2023-05-10T11:49:35.322Z,2.43
2023-05-10T11:52:08.152Z,2.20
2023-05-10T11:54:37.634Z,2.30
2023-05-10T11:57:06.217Z,2.70
2023-05-10T11:59:37.649Z,2.40
2023-05-10T12:02:05.973Z,1.98
2023-05-10T12:04:35.739Z,2.17
2023-05-10T12:07:04.053Z,1.87
2023-05-10T12:09:43.427Z,2.58
2023-05-10T12:12:18.509Z,3.25
2023-05-10T12:14:50.926Z,3.25
2023-05-10T12:17:19.108Z,2.40
2023-05-10T12:19:48.190Z,2.50
2023-05-10T12:22:16.525Z,1.98
2023-05-10T12:24:47.409Z,2.13
2023-05-10T12:27:16.920Z,2.78
2023-05-10T12:29:46.066Z,2.03
2023-05-10T12:32:15.291Z,2.63
2023-05-10T12:34:43.531Z,2.38
2023-05-10T12:37:15.185Z,2.28
2023-05-10T12:39:44.344Z,2.53
2023-05-10T12:42:13.860Z,2.25
2023-05-10T12:44:43.336Z,2.33
2023-05-10T12:47:12.634Z,2.30
2023-05-10T12:49:41.643Z,4.68
2023-05-10T12:52:09.712Z,2.00
2023-05-10T12:54:38.499Z,2.33
2023-05-10T12:57:06.644Z,1.92
2023-05-10T12:59:38.621Z,1.90
2023-05-10T13:02:08.974Z,2.25
2023-05-10T13:04:38.714Z,1.90
2023-05-10T13:07:07.126Z,2.10
2023-05-10T13:09:40.646Z,2.20
2023-05-10T13:12:12.421Z,1.80
2023-05-10T13:14:42.598Z,2.30
2023-05-10T13:17:15.839Z,1.95
2023-05-10T13:19:46.022Z,2.10
2023-05-10T13:22:15.029Z,2.00
2023-05-10T13:24:46.649Z,2.35
2023-05-10T13:27:17.234Z,2.05
2023-05-10T13:29:49.215Z,1.88
2023-05-10T13:32:19.050Z,2.08
2023-05-10T13:34:51.101Z,1.85
2023-05-10T13:37:20.530Z,2.40
2023-05-10T13:39:48.947Z,2.28
2023-05-10T13:42:17.887Z,2.30
2023-05-10T13:44:46.317Z,2.35
2023-05-10T13:47:14.742Z,2.53
2023-05-10T13:49:44.601Z,2.08
2023-05-10T13:52:13.173Z,2.03
2023-05-10T13:54:44.242Z,2.17
2023-05-10T13:57:14.908Z,1.80
2023-05-10T13:59:46.373Z,1.95
2023-05-10T14:02:15.593Z,3.00
2023-05-10T14:04:45.255Z,1.80
2023-05-10T14:07:13.506Z,1.42
2023-05-10T14:09:41.988Z,1.90
2023-05-10T14:12:10.399Z,1.85
2023-05-10T14:14:38.661Z,1.90
2023-05-10T14:17:06.986Z,1.80
2023-05-10T14:19:35.332Z,1.63
2023-05-10T14:22:05.214Z,1.60
2023-05-10T14:24:33.686Z,1.80
2023-05-10T14:27:01.942Z,2.00
2023-05-10T14:29:30.497Z,1.48
2023-05-10T14:31:59.144Z,1.92
2023-05-10T14:34:27.965Z,1.52
2023-05-10T14:36:56.155Z,1.83
2023-05-10T14:39:28.276Z,1.67
2023-05-10T14:41:56.685Z,2.13
2023-05-10T14:44:25.103Z,1.85
2023-05-10T14:46:53.379Z,1.60
2023-05-10T14:49:23.822Z,1.58
2023-05-10T14:51:52.118Z,3.50
2023-05-10T14:54:25.402Z,2.10
2023-05-10T14:56:53.621Z,2.00
2023-05-10T14:59:22.968Z,1.70
2023-05-10T15:01:52.163Z,1.92
2023-05-10T15:04:20.971Z,1.40
2023-05-10T15:06:50.709Z,1.60
2023-05-10T15:09:19.665Z,1.52
2023-05-10T15:11:50.123Z,1.85
2023-05-10T15:14:21.493Z,1.58
2023-05-10T15:16:49.858Z,1.95
2023-05-10T15:19:18.674Z,1.67
2023-05-10T15:21:49.229Z,1.80
2023-05-10T15:24:17.638Z,1.80
2023-05-10T15:26:47.313Z,1.73
2023-05-10T15:29:20.913Z,1.80
2023-05-10T15:31:50.900Z,1.80
2023-05-10T15:34:22.736Z,1.90
2023-05-10T15:36:55.718Z,1.90
2023-05-10T15:39:25.573Z,1.75
2023-05-10T15:41:54.831Z,2.67
2023-05-10T15:44:29.176Z,1.58
2023-05-10T15:46:57.827Z,1.50
2023-05-10T15:49:26.862Z,1.85
2023-05-10T15:51:55.954Z,1.60
2023-05-10T15:54:24.525Z,1.70
2023-05-10T15:56:55.143Z,1.45
2023-05-10T15:59:23.981Z,1.73
2023-05-10T16:01:53.903Z,1.50
2023-05-10T16:04:22.297Z,1.83
2023-05-10T16:06:50.740Z,2.20
2023-05-10T16:09:20.551Z,1.42
2023-05-10T16:11:52.367Z,2.00
2023-05-10T16:14:22.174Z,1.52
2023-05-10T16:16:50.680Z,1.60
2023-05-10T16:19:20.648Z,1.60
2023-05-10T16:21:49.197Z,1.65
2023-05-10T16:24:20.462Z,1.83
2023-05-10T16:26:49.078Z,2.00
2023-05-10T16:29:18.125Z,2.10
2023-05-10T16:31:47.839Z,1.60
2023-05-10T16:34:16.418Z,2.00
2023-05-10T16:36:49.071Z,1.95
2023-05-10T16:39:17.529Z,1.90
2023-05-10T16:41:45.978Z,1.75
2023-05-10T16:44:14.610Z,2.00
2023-05-10T16:46:45.709Z,1.80
2023-05-10T16:49:16.569Z,1.70
2023-05-10T16:51:46.302Z,1.70
2023-05-10T16:54:14.934Z,1.60
2023-05-10T16:56:43.252Z,1.80
2023-05-10T16:59:11.552Z,1.85
2023-05-10T17:01:40.178Z,1.80
2023-05-10T17:04:12.822Z,1.80
2023-05-10T17:06:42.718Z,1.73
2023-05-10T17:09:12.353Z,2.00
2023-05-10T17:11:42.297Z,1.85
2023-05-10T17:14:12.484Z,1.90
2023-05-10T17:16:40.920Z,1.90
2023-05-10T17:19:11.253Z,1.85
2023-05-10T17:21:40.467Z,1.90
2023-05-10T17:24:11.651Z,1.75
2023-05-10T17:26:39.918Z,1.98
2023-05-10T17:29:08.316Z,1.85
2023-05-10T17:31:36.687Z,2.00
2023-05-10T17:34:06.695Z,2.00
2023-05-10T17:36:36.000Z,1.75
2023-05-10T17:39:04.395Z,1.80
2023-05-10T17:41:38.630Z,1.97
2023-05-10T17:44:10.323Z,1.77
2023-05-10T17:46:39.474Z,1.60
2023-05-10T17:49:07.626Z,1.90
2023-05-10T17:51:39.310Z,2.00
2023-05-10T17:54:07.577Z,1.93
2023-05-10T17:56:37.312Z,1.90
2023-05-10T17:59:05.880Z,1.90
2023-05-10T18:01:44.320Z,2.00
2023-05-10T18:04:13.672Z,2.13
2023-05-10T18:06:42.319Z,2.17
2023-05-10T18:09:12.025Z,2.10
2023-05-10T18:11:42.067Z,1.90
2023-05-10T18:14:11.414Z,2.13
2023-05-10T18:16:39.808Z,2.40
2023-05-10T18:19:08.285Z,2.83
2023-05-10T18:21:40.340Z,2.43
2023-05-10T18:24:09.081Z,2.20
2023-05-10T18:26:38.814Z,2.20
2023-05-10T18:29:09.199Z,2.40
2023-05-10T18:31:37.788Z,2.70
2023-05-10T18:34:06.509Z,2.60
2023-05-10T18:36:35.586Z,2.70
2023-05-10T18:39:03.818Z,2.10
2023-05-10T18:41:32.203Z,2.33
2023-05-10T18:44:03.489Z,2.47
2023-05-10T18:46:35.859Z,3.43
2023-05-10T18:49:04.497Z,3.23
2023-05-10T18:51:33.668Z,2.53
2023-05-10T18:54:03.130Z,2.10
2023-05-10T18:56:34.312Z,2.50
2023-05-10T18:59:05.629Z,2.50
2023-05-10T19:01:42.261Z,2.10
2023-05-10T19:04:10.738Z,2.70
2023-05-10T19:06:43.708Z,2.60
2023-05-10T19:09:14.662Z,2.83
2023-05-10T19:11:47.127Z,2.43
2023-05-10T19:14:17.849Z,2.77
2023-05-10T19:16:49.854Z,2.53
2023-05-10T19:19:20.488Z,2.70
2023-05-10T19:21:49.019Z,2.60
2023-05-10T19:24:20.264Z,2.47
2023-05-10T19:26:52.879Z,3.00
2023-05-10T19:29:28.183Z,3.03
2023-05-10T19:32:01.027Z,3.50
2023-05-10T19:34:31.387Z,3.70
2023-05-10T19:36:59.923Z,3.30
2023-05-10T19:39:28.747Z,3.27
2023-05-10T19:41:56.899Z,3.23
2023-05-10T19:44:26.506Z,3.70
2023-05-10T19:46:54.729Z,3.70
2023-05-10T19:49:24.399Z,3.43
2023-05-10T19:51:52.922Z,3.30
2023-05-10T19:54:22.117Z,3.97
2023-05-10T19:56:50.464Z,3.97
2023-05-10T19:59:18.912Z,4.00
2023-05-10T20:01:47.234Z,4.40
2023-05-10T20:04:15.566Z,4.03
2023-05-10T20:06:45.104Z,4.60
2023-05-10T20:09:13.268Z,4.17
2023-05-10T20:11:41.918Z,4.63
2023-05-10T20:14:10.321Z,5.10
2023-05-10T20:16:38.935Z,4.70
2023-05-10T20:19:07.097Z,4.50
2023-05-10T20:21:35.923Z,4.57
2023-05-10T20:24:05.860Z,5.53
2023-05-10T20:26:34.016Z,5.30
2023-05-10T20:29:02.196Z,5.40
2023-05-10T20:31:30.238Z,5.03
2023-05-10T20:33:58.922Z,5.37
2023-05-10T20:36:27.931Z,5.27
2023-05-10T20:38:56.031Z,5.27
2023-05-10T20:41:25.913Z,5.77
2023-05-10T20:43:58.054Z,5.63
2023-05-10T20:46:27.104Z,5.70
2023-05-10T20:48:55.636Z,5.53
2023-05-10T20:51:23.990Z,5.80
2023-05-10T20:53:52.121Z,5.77
2023-05-10T20:56:25.067Z,5.77
2023-05-10T20:58:55.103Z,5.30
2023-05-10T21:01:27.338Z,5.00
2023-05-10T21:03:55.448Z,6.17
2023-05-10T21:06:23.628Z,5.60
2023-05-10T21:08:52.393Z,5.43
2023-05-10T21:11:20.828Z,5.27
2023-05-10T21:13:48.904Z,5.00
2023-05-10T21:16:19.332Z,4.67
2023-05-10T21:18:47.534Z,4.63
2023-05-10T21:21:16.970Z,4.40
2023-05-10T21:23:47.821Z,4.30
2023-05-10T21:26:17.983Z,4.53
2023-05-10T21:28:46.819Z,4.70
2023-05-10T21:31:18.357Z,4.37
2023-05-10T21:33:47.824Z,4.23
2023-05-10T21:36:16.920Z,3.70
2023-05-10T21:38:46.549Z,3.57
2023-05-10T21:41:14.644Z,3.87
2023-05-10T21:43:42.772Z,3.57
2023-05-10T21:46:16.341Z,3.83
2023-05-10T21:48:44.501Z,4.67
2023-05-10T21:51:13.921Z,4.80
2023-05-10T21:53:43.097Z,3.30
2023-05-10T21:56:11.617Z,3.50
2023-05-10T21:58:40.736Z,3.23
2023-05-10T22:01:11.422Z,3.40
2023-05-10T22:03:41.043Z,3.20
2023-05-10T22:06:09.508Z,3.10
2023-05-10T22:08:43.079Z,3.40
2023-05-10T22:11:11.200Z,3.27
2023-05-10T22:13:39.439Z,3.40
2023-05-10T22:16:09.030Z,3.37
2023-05-10T22:18:37.437Z,3.10
2023-05-10T22:21:06.135Z,3.17
2023-05-10T22:23:36.990Z,3.30
2023-05-10T22:26:06.580Z,3.60
2023-05-10T22:28:35.021Z,4.00
2023-05-10T22:31:03.587Z,3.70
2023-05-10T22:33:31.672Z,2.97
2023-05-10T22:36:01.019Z,3.30
2023-05-10T22:38:30.020Z,3.47
2023-05-10T22:41:00.134Z,3.03
2023-05-10T22:43:30.015Z,3.00
2023-05-10T22:45:59.058Z,3.43
2023-05-10T22:48:27.216Z,3.33
2023-05-10T22:50:55.900Z,2.70
2023-05-10T22:53:26.044Z,3.20
2023-05-10T22:55:54.290Z,3.20
2023-05-10T22:58:23.994Z,2.90
2023-05-10T23:00:53.426Z,3.00
2023-05-10T23:03:22.148Z,2.83
2023-05-10T23:05:55.089Z,3.10
2023-05-10T23:08:23.453Z,3.03
2023-05-10T23:10:53.048Z,3.10
2023-05-10T23:13:21.794Z,2.90
2023-05-10T23:15:50.042Z,2.83
2023-05-10T23:18:22.447Z,2.70
2023-05-10T23:20:50.815Z,3.13
2023-05-10T23:23:20.065Z,3.07
2023-05-10T23:25:48.332Z,2.53
2023-05-10T23:28:17.082Z,2.87
2023-05-10T23:30:46.762Z,2.97
2023-05-10T23:33:19.495Z,3.20
2023-05-10T23:35:47.704Z,3.17
2023-05-10T23:38:15.887Z,2.70
2023-05-10T23:40:44.143Z,3.10
2023-05-10T23:43:15.033Z,3.10
2023-05-10T23:45:53.789Z,3.13
2023-05-10T23:48:27.411Z,3.07
2023-05-10T23:50:55.609Z,2.67
2023-05-10T23:53:23.676Z,2.63
2023-05-10T23:55:52.032Z,2.63
2023-05-10T23:58:20.408Z,2.80
